Athina P. — SY6082 — position and weather

sailwx.info

Track history (hours):
 
Tides and Currents Weather Stations Pressure Air Temp Water Temp Dewpoint Dewpoint Depression Visibility Wind Speed Wind Dir Waves Ship Positions

Athina P.

Last reported at 2015-Jul-02 07:28 UTC. Time now 2015-Jul-02 18:21 UTC.
Position N 37°58' E 023°32'.

Length 84 m; draft 1.7 m.

Type: Passenger vessel. MMSI: 237932700.

Date/timePositionNaut miles runAvg speedWind from/ knotsBaromVisibWave heightAir tempDewpointWater temp
2015-Jul-02 07:28N 37°58' E 023°32'0 0.2
2015-Jul-02 06:31N 37°58' E 023°32'5 5.1
2015-Jul-02 05:33N 37°57' E 023°38'0 0.0
2015-Jul-02 04:26N 37°57' E 023°38'  
2015-Jun-29 15:20N 37°57' E 023°38'0 0.0
2015-Jun-29 14:33N 37°57' E 023°38'0 0.0
2015-Jun-29 13:33N 37°57' E 023°38'0 0.0
2015-Jun-29 12:33N 37°57' E 023°38'0 0.0
2015-Jun-29 11:33N 37°57' E 023°38'0 0.0
2015-Jun-29 10:33N 37°57' E 023°38'0 0.0
2015-Jun-29 09:33N 37°57' E 023°38'0 0.0
2015-Jun-29 08:33N 37°57' E 023°38'0 0.0
2015-Jun-29 07:33N 37°57' E 023°38'0 0.0
2015-Jun-29 06:33N 37°57' E 023°38'0 0.0
2015-Jun-29 05:33N 37°57' E 023°38'4 3.9
2015-Jun-29 04:33N 37°58' E 023°33'1 0.2
2015-Jun-28 21:27N 37°58' E 023°32'0 0.2
2015-Jun-28 20:33N 37°58' E 023°32'1 1.2
2015-Jun-28 19:33N 37°58' E 023°33'1 0.9
2015-Jun-28 18:33N 37°58' E 023°32'1 0.9
2015-Jun-28 17:33N 37°58' E 023°33'1 1.2
2015-Jun-28 16:33N 37°58' E 023°32'1 0.6
2015-Jun-28 15:33N 37°58' E 023°32'0 0.4
2015-Jun-28 14:33N 37°58' E 023°33'1 0.9
2015-Jun-28 13:33N 37°58' E 023°32'0 0.0
2015-Jun-27 13:17N 37°58' E 023°32'1 1.9
2015-Jun-27 12:33N 37°58' E 023°33'1 1.2
2015-Jun-27 11:33N 37°58' E 023°32'1 1.2
2015-Jun-27 10:33N 37°58' E 023°33'1 1.2
2015-Jun-27 09:33N 37°58' E 023°32'1 1.2
2015-Jun-27 08:33N 37°58' E 023°33'1 1.2
2015-Jun-27 07:33N 37°58' E 023°32'0 0.2
2015-Jun-27 06:33N 37°58' E 023°32'1 1.1
2015-Jun-27 05:33N 37°58' E 023°33'1 0.1
2015-Jun-26 19:30N 37°58' E 023°32'1 1.3
2015-Jun-26 18:33N 37°58' E 023°33'1 1.2
2015-Jun-26 17:33N 37°58' E 023°32'0 0.0
2015-Jun-26 16:33N 37°58' E 023°32'1 1.2
2015-Jun-26 15:33N 37°58' E 023°33'1 1.2
2015-Jun-26 14:33N 37°58' E 023°32'0 0.1
2015-Jun-26 13:33N 37°58' E 023°32'1 1.2
2015-Jun-26 12:33N 37°58' E 023°33'1 1.2
2015-Jun-26 11:33N 37°58' E 023°32'0 0.2
2015-Jun-26 10:33N 37°58' E 023°32'0 0.0
2015-Jun-25 03:29N 37°58' E 023°32'0 0.3
2015-Jun-25 02:33N 37°58' E 023°32'1 1.0
2015-Jun-25 01:33N 37°58' E 023°33'1 1.0
2015-Jun-25 00:33N 37°58' E 023°32'1 1.0
2015-Jun-24 23:33N 37°58' E 023°33'1 1.1
2015-Jun-24 22:33N 37°58' E 023°32'1 1.2
2015-Jun-24 21:33N 37°58' E 023°33'1 1.1
2015-Jun-24 20:33N 37°58' E 023°32'1 1.0
2015-Jun-24 19:33N 37°58' E 023°33'1 1.2
2015-Jun-24 18:33N 37°58' E 023°32'0 0.0
2015-Jun-24 03:34N 37°58' E 023°32'1 1.3
2015-Jun-24 02:34N 37°58' E 023°33'1 1.0
2015-Jun-24 01:34N 37°58' E 023°32'1 0.9
2015-Jun-24 00:34N 37°58' E 023°33'1 1.0
2015-Jun-23 23:34N 37°58' E 023°32'1 0.9
2015-Jun-23 22:34N 37°58' E 023°33'1 1.0
2015-Jun-23 21:34N 37°58' E 023°32'1 1.2
2015-Jun-23 20:34N 37°58' E 023°33'1 1.2
2015-Jun-23 19:34N 37°58' E 023°32'1 2.5
2015-Jun-23 19:06N 37°58' E 023°33'1 0.1
2015-Jun-22 19:07N 37°58' E 023°32'1 2.3
2015-Jun-22 18:33N 37°58' E 023°33'1 1.3
2015-Jun-22 17:33N 37°58' E 023°32'0 0.2
2015-Jun-22 16:33N 37°58' E 023°32'1 1.1
2015-Jun-22 15:33N 37°58' E 023°33'1 1.2
2015-Jun-22 14:33N 37°58' E 023°32'0 0.2
2015-Jun-22 13:33N 37°58' E 023°32'1 1.1
2015-Jun-22 12:33N 37°58' E 023°33'1 1.2
2015-Jun-22 11:33N 37°58' E 023°32'0 0.1
2015-Jun-22 10:33N 37°58' E 023°32'  
Track history (hours):
 
Tides and Currents Weather Stations Pressure Air Temp Water Temp Dewpoint Dewpoint Depression Visibility Wind Speed Wind Dir Waves Ship Positions

Athina P.

Last reported at 2015-Jul-02 07:28 UTC. Time now 2015-Jul-02 18:21 UTC.
Position N 37°58' E 023°32'.

Length 84 m; draft 1.7 m.

Type: Passenger vessel. MMSI: 237932700.

Date/timePositionNaut miles runAvg speedWind from/ knotsBaromVisibWave heightAir tempDewpointWater temp
2015-Jul-02 07:28N 37°58' E 023°32'0 0.2
2015-Jul-02 06:31N 37°58' E 023°32'5 5.1
2015-Jul-02 05:33N 37°57' E 023°38'0 0.0
2015-Jul-02 04:26N 37°57' E 023°38'  
2015-Jun-29 15:20N 37°57' E 023°38'0 0.0
2015-Jun-29 14:33N 37°57' E 023°38'0 0.0
2015-Jun-29 13:33N 37°57' E 023°38'0 0.0
2015-Jun-29 12:33N 37°57' E 023°38'0 0.0
2015-Jun-29 11:33N 37°57' E 023°38'0 0.0
2015-Jun-29 10:33N 37°57' E 023°38'0 0.0
2015-Jun-29 09:33N 37°57' E 023°38'0 0.0
2015-Jun-29 08:33N 37°57' E 023°38'0 0.0
2015-Jun-29 07:33N 37°57' E 023°38'0 0.0
2015-Jun-29 06:33N 37°57' E 023°38'0 0.0
2015-Jun-29 05:33N 37°57' E 023°38'4 3.9
2015-Jun-29 04:33N 37°58' E 023°33'1 0.2
2015-Jun-28 21:27N 37°58' E 023°32'0 0.2
2015-Jun-28 20:33N 37°58' E 023°32'1 1.2
2015-Jun-28 19:33N 37°58' E 023°33'1 0.9
2015-Jun-28 18:33N 37°58' E 023°32'1 0.9
2015-Jun-28 17:33N 37°58' E 023°33'1 1.2
2015-Jun-28 16:33N 37°58' E 023°32'1 0.6
2015-Jun-28 15:33N 37°58' E 023°32'0 0.4
2015-Jun-28 14:33N 37°58' E 023°33'1 0.9
2015-Jun-28 13:33N 37°58' E 023°32'0 0.0
2015-Jun-27 13:17N 37°58' E 023°32'1 1.9
2015-Jun-27 12:33N 37°58' E 023°33'1 1.2
2015-Jun-27 11:33N 37°58' E 023°32'1 1.2
2015-Jun-27 10:33N 37°58' E 023°33'1 1.2
2015-Jun-27 09:33N 37°58' E 023°32'1 1.2
2015-Jun-27 08:33N 37°58' E 023°33'1 1.2
2015-Jun-27 07:33N 37°58' E 023°32'0 0.2
2015-Jun-27 06:33N 37°58' E 023°32'1 1.1
2015-Jun-27 05:33N 37°58' E 023°33'1 0.1
2015-Jun-26 19:30N 37°58' E 023°32'1 1.3
2015-Jun-26 18:33N 37°58' E 023°33'1 1.2
2015-Jun-26 17:33N 37°58' E 023°32'0 0.0
2015-Jun-26 16:33N 37°58' E 023°32'1 1.2
2015-Jun-26 15:33N 37°58' E 023°33'1 1.2
2015-Jun-26 14:33N 37°58' E 023°32'0 0.1
2015-Jun-26 13:33N 37°58' E 023°32'1 1.2
2015-Jun-26 12:33N 37°58' E 023°33'1 1.2
2015-Jun-26 11:33N 37°58' E 023°32'0 0.2
2015-Jun-26 10:33N 37°58' E 023°32'0 0.0
2015-Jun-25 03:29N 37°58' E 023°32'0 0.3
2015-Jun-25 02:33N 37°58' E 023°32'1 1.0
2015-Jun-25 01:33N 37°58' E 023°33'1 1.0
2015-Jun-25 00:33N 37°58' E 023°32'1 1.0
2015-Jun-24 23:33N 37°58' E 023°33'1 1.1
2015-Jun-24 22:33N 37°58' E 023°32'1 1.2
2015-Jun-24 21:33N 37°58' E 023°33'1 1.1
2015-Jun-24 20:33N 37°58' E 023°32'1 1.0
2015-Jun-24 19:33N 37°58' E 023°33'1 1.2
2015-Jun-24 18:33N 37°58' E 023°32'0 0.0
2015-Jun-24 03:34N 37°58' E 023°32'1 1.3
2015-Jun-24 02:34N 37°58' E 023°33'1 1.0
2015-Jun-24 01:34N 37°58' E 023°32'1 0.9
2015-Jun-24 00:34N 37°58' E 023°33'1 1.0
2015-Jun-23 23:34N 37°58' E 023°32'1 0.9
2015-Jun-23 22:34N 37°58' E 023°33'1 1.0
2015-Jun-23 21:34N 37°58' E 023°32'1 1.2
2015-Jun-23 20:34N 37°58' E 023°33'1 1.2
2015-Jun-23 19:34N 37°58' E 023°32'1 2.5
2015-Jun-23 19:06N 37°58' E 023°33'1 0.1
2015-Jun-22 19:07N 37°58' E 023°32'1 2.3
2015-Jun-22 18:33N 37°58' E 023°33'1 1.3
2015-Jun-22 17:33N 37°58' E 023°32'0 0.2
2015-Jun-22 16:33N 37°58' E 023°32'1 1.1
2015-Jun-22 15:33N 37°58' E 023°33'1 1.2
2015-Jun-22 14:33N 37°58' E 023°32'0 0.2
2015-Jun-22 13:33N 37°58' E 023°32'1 1.1
2015-Jun-22 12:33N 37°58' E 023°33'1 1.2
2015-Jun-22 11:33N 37°58' E 023°32'0 0.1
2015-Jun-22 10:33N 37°58' E 023°32'  

Dump ship's entire track history